Time;durP1;ratioP1;P1;durP2;ratioP2;P2;SDS_P1;SDS_P2;PMS_P1;PMS_P2;Temp;Humidity;BMP_temperature;BMP_pressure;BME280_temperature;BME280_humidity;BME280_pressure;Samples;Min_cycle;Max_cycle;Signal;HPM_P1;HPM_P2
2022/11/13 00:00:33;;;;;;;25.80;16.17;;;;;;;6.36;100.00;102506.09;5104171;28;20490;-67
2022/11/13 00:02:58;;;;;;;26.50;16.35;;;;;;;6.25;100.00;102502.06;5107980;28;20099;-69
2022/11/13 00:05:24;;;;;;;26.25;15.82;;;;;;;6.24;100.00;102506.41;5104429;28;20527;-68
2022/11/13 00:07:49;;;;;;;26.67;16.90;;;;;;;6.23;100.00;102496.75;5106105;28;20028;-68
2022/11/13 00:10:15;;;;;;;26.77;16.52;;;;;;;6.17;100.00;102496.41;5105910;28;20020;-69
2022/11/13 00:12:40;;;;;;;27.10;16.55;;;;;;;6.13;100.00;102493.56;5105053;28;20028;-67
2022/11/13 00:15:06;;;;;;;24.92;15.60;;;;;;;6.07;100.00;102495.09;5106943;28;20382;-68
2022/11/13 00:17:31;;;;;;;25.67;15.88;;;;;;;6.00;100.00;102486.81;5103793;28;20048;-69
2022/11/13 00:19:56;;;;;;;25.45;15.65;;;;;;;5.92;100.00;102489.91;5107054;28;20024;-69
2022/11/13 00:22:22;;;;;;;25.92;16.45;;;;;;;5.83;100.00;102488.59;5104523;28;20063;-70
2022/11/13 00:24:47;;;;;;;26.10;16.13;;;;;;;5.78;100.00;102477.84;5105701;28;20412;-69
2022/11/13 00:27:12;;;;;;;26.25;16.55;;;;;;;5.65;100.00;102478.03;5105586;28;20028;-69
2022/11/13 00:29:37;;;;;;;25.08;15.02;;;;;;;5.57;100.00;102480.28;5104457;28;20028;-70
2022/11/13 00:32:03;;;;;;;26.05;15.88;;;;;;;5.51;100.00;102480.00;5106860;28;20378;-69
2022/11/13 00:34:29;;;;;;;25.23;15.57;;;;;;;5.49;100.00;102487.78;5103394;28;20026;-72
2022/11/13 00:36:54;;;;;;;25.50;15.80;;;;;;;5.45;100.00;102480.56;5106582;28;20027;-69
2022/11/13 00:39:19;;;;;;;25.35;15.68;;;;;;;5.45;100.00;102483.19;5104242;28;20028;-69
2022/11/13 00:41:45;;;;;;;25.98;15.63;;;;;;;5.41;100.00;102478.59;5104720;28;20055;-69
2022/11/13 00:44:10;;;;;;;25.02;15.40;;;;;;;5.36;100.00;102464.38;5105816;28;20096;-69
2022/11/13 00:46:35;;;;;;;25.42;15.23;;;;;;;5.29;100.00;102465.75;5103866;28;20467;-70
2022/11/13 00:49:01;;;;;;;24.50;14.88;;;;;;;5.24;100.00;102467.22;5106939;28;20474;-70
2022/11/13 00:51:26;;;;;;;25.10;15.25;;;;;;;5.18;100.00;102464.28;5103151;28;20471;-69
2022/11/13 00:53:52;;;;;;;25.10;15.18;;;;;;;5.14;100.00;102471.13;5105683;28;20034;-71
2022/11/13 00:56:17;;;;;;;25.50;15.73;;;;;;;5.12;100.00;102458.75;5104417;28;20031;-70
2022/11/13 00:58:42;;;;;;;24.33;15.02;;;;;;;5.11;100.00;102463.09;5104561;28;20068;-69
2022/11/13 01:01:14;;;;;;;25.05;15.50;;;;;;;5.01;100.00;102458.16;5105546;28;20058;-69
2022/11/13 01:03:39;;;;;;;26.23;15.57;;;;;;;5.01;100.00;102451.22;5103195;28;20024;-69
2022/11/13 01:06:17;;;;;;;26.13;16.00;;;;;;;4.94;100.00;102446.47;5105722;28;20026;-69
2022/11/13 01:08:43;;;;;;;25.13;15.50;;;;;;;4.88;100.00;102454.91;5103884;28;20017;-69
2022/11/13 01:11:17;;;;;;;25.42;15.43;;;;;;;4.81;100.00;102458.00;5105587;28;20463;-68
2022/11/13 01:13:46;;;;;;;26.23;15.73;;;;;;;4.79;100.00;102454.41;5104235;28;20030;-68
2022/11/13 01:16:13;;;;;;;26.52;15.98;;;;;;;4.75;100.00;102448.91;5105202;28;20020;-68
2022/11/13 01:18:40;;;;;;;25.50;15.82;;;;;;;4.70;100.00;102449.59;5103318;28;20362;-68
2022/11/13 01:21:14;;;;;;;25.05;14.75;;;;;;;4.63;100.00;102450.06;5106306;28;20385;-68
2022/11/13 01:23:40;;;;;;;25.35;15.65;;;;;;;4.60;100.00;102449.00;5102256;28;20030;-68
2022/11/13 01:26:21;;;;;;;25.98;15.60;;;;;;;4.54;100.00;102453.09;5105518;28;20019;-68
2022/11/13 01:28:47;;;;;;;26.17;15.70;;;;;;;4.68;100.00;102445.06;5104305;28;20044;-68
2022/11/13 01:31:16;;;;;;;25.48;15.75;;;;;;;4.67;100.00;102443.25;5104632;28;20092;-67
2022/11/13 01:33:43;;;;;;;24.88;14.50;;;;;;;4.69;100.00;102433.78;5103969;28;20016;-69
2022/11/13 01:36:15;;;;;;;24.90;15.50;;;;;;;4.68;100.00;102445.97;5105050;28;20077;-68
2022/11/13 01:38:40;;;;;;;25.05;15.38;;;;;;;4.61;100.00;102443.84;5103322;28;20023;-68
2022/11/13 01:41:09;;;;;;;26.15;15.23;;;;;;;4.60;100.00;102439.44;5105237;28;20546;-68
2022/11/13 01:43:37;;;;;;;24.45;14.68;;;;;;;4.52;100.00;102443.34;5102421;28;20024;-68
2022/11/13 01:46:14;;;;;;;24.73;15.48;;;;;;;4.60;100.00;102443.75;5105765;28;20020;-69
2022/11/13 01:49:00;;;;;;;24.73;15.00;;;;;;;4.52;100.00;102448.56;5100162;28;20024;-68
2022/11/13 01:51:35;;;;;;;25.75;15.40;;;;;;;4.51;100.00;102441.53;5102203;28;20055;-68
2022/11/13 01:54:05;;;;;;;25.23;15.20;;;;;;;4.43;100.00;102430.66;5098412;28;20387;-68
2022/11/13 01:56:31;;;;;;;25.20;15.35;;;;;;;4.45;100.00;102431.63;5097876;28;20414;-68
2022/11/13 01:59:03;;;;;;;24.25;15.02;;;;;;;4.39;100.00;102427.78;5104930;28;20092;-68
2022/11/13 02:01:29;;;;;;;24.92;15.40;;;;;;;4.38;100.00;102424.25;5097382;28;20498;-68
2022/11/13 02:03:54;;;;;;;26.58;15.32;;;;;;;4.34;100.00;102407.47;5104746;28;20032;-68
2022/11/13 02:06:20;;;;;;;23.85;14.48;;;;;;;4.34;100.00;102406.59;5102762;28;20023;-68
2022/11/13 02:08:48;;;;;;;25.65;15.05;;;;;;;4.35;100.00;102403.13;5103480;28;20024;-68
2022/11/13 02:11:13;;;;;;;24.60;14.38;;;;;;;4.27;100.00;102409.69;5103790;28;20026;-68
2022/11/13 02:13:38;;;;;;;23.58;14.10;;;;;;;4.24;100.00;102413.03;5102135;28;20022;-68
2022/11/13 02:16:07;;;;;;;24.42;14.43;;;;;;;4.26;100.00;102402.63;5104680;28;20030;-68
2022/11/13 02:18:35;;;;;;;24.35;14.30;;;;;;;4.23;100.00;102405.09;5101954;28;20054;-69
2022/11/13 02:21:28;;;;;;;25.58;14.55;;;;;;;4.27;100.00;102399.22;5097200;28;20111;-70
2022/11/13 02:24:21;;;;;;;25.13;14.98;;;;;;;4.19;100.00;102397.06;5103413;28;20100;-69
2022/11/13 02:26:49;;;;;;;24.45;14.80;;;;;;;4.17;100.00;102392.56;5101763;28;20032;-69
2022/11/13 02:29:14;;;;;;;24.70;14.55;;;;;;;4.19;100.00;102383.06;5103441;28;20020;-69
2022/11/13 02:31:40;;;;;;;24.75;15.30;;;;;;;4.17;100.00;102387.31;5102409;28;20028;-69
2022/11/13 02:34:05;;;;;;;24.77;14.68;;;;;;;4.11;100.00;102387.88;5104457;28;20031;-69
2022/11/13 02:36:31;;;;;;;23.98;14.23;;;;;;;4.17;100.00;102382.97;5101176;28;20036;-70
2022/11/13 02:39:00;;;;;;;24.67;15.40;;;;;;;4.19;100.00;102386.59;5104450;28;20030;-70
2022/11/13 02:41:25;;;;;;;27.00;15.30;;;;;;;4.20;100.00;102384.88;5101307;28;20074;-69
2022/11/13 02:43:51;;;;;;;24.55;14.85;;;;;;;4.24;100.00;102383.31;5101861;28;20036;-69
2022/11/13 02:46:16;;;;;;;24.83;15.30;;;;;;;4.23;100.00;102377.19;5103060;28;20027;-70
2022/11/13 02:48:41;;;;;;;24.45;14.43;;;;;;;4.24;100.00;102376.38;5100431;28;20174;-68
2022/11/13 02:51:06;;;;;;;24.45;14.90;;;;;;;4.24;100.00;102367.59;5104207;28;20111;-69
2022/11/13 02:53:32;;;;;;;24.63;14.88;;;;;;;4.24;100.00;102375.44;5101262;28;20024;-69
2022/11/13 02:55:57;;;;;;;25.35;15.30;;;;;;;4.24;100.00;102373.75;5104182;28;20020;-69
2022/11/13 02:58:22;;;;;;;24.73;15.30;;;;;;;4.19;100.00;102369.97;5102123;28;20016;-68
2022/11/13 03:00:48;;;;;;;25.35;15.18;;;;;;;4.16;100.00;102360.22;5103220;28;20438;-70
2022/11/13 03:03:13;;;;;;;24.98;15.50;;;;;;;4.25;100.00;102369.41;5103203;28;20359;-69
2022/11/13 03:05:38;;;;;;;27.00;15.95;;;;;;;4.29;100.00;102363.53;5101331;28;20532;-67
2022/11/13 03:08:05;;;;;;;25.70;15.80;;;;;;;4.36;100.00;102363.94;5104594;28;20063;-68
2022/11/13 03:10:31;;;;;;;25.73;15.75;;;;;;;4.35;100.00;102367.41;5096814;28;20052;-68
2022/11/13 03:12:57;;;;;;;25.05;15.23;;;;;;;4.33;100.00;102360.25;5104388;28;20429;-68
2022/11/13 03:15:23;;;;;;;24.80;15.23;;;;;;;4.39;100.00;102357.97;5101885;28;20080;-67
2022/11/13 03:17:48;;;;;;;25.08;15.10;;;;;;;4.39;100.00;102351.84;5102791;28;20404;-66
2022/11/13 03:20:13;;;;;;;26.20;15.10;;;;;;;4.41;100.00;102339.72;5103148;28;20039;-67
2022/11/13 03:22:39;;;;;;;25.50;15.52;;;;;;;4.47;100.00;102346.19;5101472;28;20028;-67
2022/11/13 03:25:05;;;;;;;25.30;15.27;;;;;;;4.40;100.00;102346.69;5104390;28;20051;-67
2022/11/13 03:27:31;;;;;;;24.13;14.65;;;;;;;4.46;100.00;102338.25;5097630;28;20489;-68
2022/11/13 03:29:57;;;;;;;24.25;14.60;;;;;;;4.52;100.00;102341.19;5107885;28;20386;-67
2022/11/13 03:32:22;;;;;;;23.70;14.52;;;;;;;4.48;100.00;102337.50;5105478;28;20030;-67
2022/11/13 03:34:48;;;;;;;24.23;14.50;;;;;;;4.42;100.00;102344.16;5106675;28;20024;-67
2022/11/13 03:37:13;;;;;;;24.70;14.63;;;;;;;4.36;100.00;102339.47;5106772;28;20023;-67
2022/11/13 03:39:38;;;;;;;25.10;14.85;;;;;;;4.34;100.00;102333.28;5104881;28;20035;-67
2022/11/13 03:42:03;;;;;;;24.45;15.05;;;;;;;4.51;100.00;102336.75;5107581;28;20044;-67
2022/11/13 03:44:29;;;;;;;25.50;14.52;;;;;;;4.48;100.00;102334.88;5104429;28;20490;-67
2022/11/13 03:46:54;;;;;;;24.88;14.77;;;;;;;4.58;100.00;102336.28;5106993;28;20057;-67
2022/11/13 03:49:19;;;;;;;24.17;14.32;;;;;;;4.66;100.00;102326.19;5105758;28;20027;-67
2022/11/13 03:51:45;;;;;;;24.35;14.45;;;;;;;4.74;100.00;102324.88;5105633;28;20066;-67
2022/11/13 03:54:10;;;;;;;24.52;14.05;;;;;;;4.85;100.00;102328.06;5106955;28;20031;-67
2022/11/13 03:56:35;;;;;;;24.20;13.50;;;;;;;4.86;100.00;102324.59;5104284;28;20047;-67
2022/11/13 03:59:01;;;;;;;24.33;14.00;;;;;;;4.85;100.00;102323.72;5107441;28;20022;-64
2022/11/13 04:01:26;;;;;;;24.42;13.98;;;;;;;4.87;100.00;102316.81;5104748;28;20051;-64
2022/11/13 04:03:51;;;;;;;23.58;13.73;;;;;;;4.93;100.00;102307.47;5106331;28;20051;-64
2022/11/13 04:06:17;;;;;;;23.23;13.57;;;;;;;4.98;100.00;102306.91;5105609;28;20023;-65
2022/11/13 04:08:42;;;;;;;23.52;12.88;;;;;;;5.04;100.00;102303.69;5105314;28;20070;-64
2022/11/13 04:11:11;;;;;;;24.05;13.50;;;;;;;4.99;100.00;102305.16;5106834;28;20019;-65
2022/11/13 04:13:36;;;;;;;24.15;13.65;;;;;;;4.93;100.00;102299.63;5103781;28;20028;-64
2022/11/13 04:16:02;;;;;;;23.85;13.05;;;;;;;5.00;100.00;102301.72;5107658;28;20162;-64
2022/11/13 04:18:27;;;;;;;24.25;13.43;;;;;;;5.00;100.00;102301.72;5104045;28;20016;-64
2022/11/13 04:20:58;;;;;;;23.48;13.63;;;;;;;5.02;100.00;102295.75;5106120;28;20107;-64
2022/11/13 04:23:24;;;;;;;24.70;13.38;;;;;;;4.99;100.00;102299.91;5104870;28;20033;-64
2022/11/13 04:25:49;;;;;;;23.27;12.90;;;;;;;5.00;100.00;102301.72;5105745;28;20028;-64
2022/11/13 04:28:14;;;;;;;22.77;12.55;;;;;;;4.94;100.00;102290.94;5105609;28;20394;-64
2022/11/13 04:30:40;;;;;;;23.40;12.80;;;;;;;4.94;100.00;102285.72;5104203;28;20386;-64
2022/11/13 04:33:05;;;;;;;22.90;13.07;;;;;;;4.84;100.00;102286.94;5106881;28;20023;-65
2022/11/13 04:35:31;;;;;;;23.80;13.20;;;;;;;4.77;100.00;102283.09;5103710;28;20436;-64
2022/11/13 04:37:56;;;;;;;24.10;13.10;;;;;;;4.67;100.00;102278.22;5106327;28;20030;-65
2022/11/13 04:40:21;;;;;;;24.38;13.68;;;;;;;4.61;100.00;102276.19;5104407;28;20114;-65
2022/11/13 04:42:49;;;;;;;23.23;13.10;;;;;;;4.54;100.00;102269.75;5104698;28;20048;-63
2022/11/13 04:45:20;;;;;;;24.98;14.15;;;;;;;4.63;100.00;102278.88;5105446;28;20115;-64
2022/11/13 04:47:46;;;;;;;23.75;13.45;;;;;;;4.67;100.00;102278.22;5104579;28;20064;-64
2022/11/13 04:50:13;;;;;;;23.98;13.93;;;;;;;4.64;100.00;102280.69;5105687;28;20051;-64
2022/11/13 04:52:39;;;;;;;24.40;13.57;;;;;;;4.62;100.00;102277.09;5103701;28;20505;-64
2022/11/13 04:55:05;;;;;;;23.60;13.77;;;;;;;4.56;100.00;102277.69;5106462;28;20094;-64
2022/11/13 04:57:30;;;;;;;24.02;12.93;;;;;;;4.47;100.00;102282.41;5102873;28;20062;-64
2022/11/13 04:59:55;;;;;;;25.13;14.27;;;;;;;4.49;100.00;102279.06;5105859;28;20397;-68
2022/11/13 05:02:21;;;;;;;24.10;13.93;;;;;;;4.43;100.00;102270.91;5104208;28;20031;-68
2022/11/13 05:04:47;;;;;;;23.95;14.35;;;;;;;4.40;100.00;102277.69;5104390;28;20028;-67
2022/11/13 05:07:12;;;;;;;23.73;13.95;;;;;;;4.46;100.00;102284.16;5105415;28;20374;-68
2022/11/13 05:09:37;;;;;;;25.05;14.57;;;;;;;4.46;100.00;102284.16;5102916;28;20360;-68
2022/11/13 05:12:06;;;;;;;24.48;14.00;;;;;;;4.46;100.00;102283.25;5106697;28;20020;-68
2022/11/13 05:14:36;;;;;;;24.13;13.88;;;;;;;4.31;100.00;102280.72;5098699;28;20379;-68
2022/11/13 05:17:01;;;;;;;23.73;13.38;;;;;;;4.18;100.00;102280.09;5098407;28;20458;-68
2022/11/13 05:19:26;;;;;;;24.48;14.27;;;;;;;4.10;100.00;102277.88;5105606;28;20024;-68
2022/11/13 05:21:52;;;;;;;24.60;14.48;;;;;;;4.02;100.00;102282.69;5103551;28;20031;-68
2022/11/13 05:24:17;;;;;;;23.80;13.73;;;;;;;3.94;100.00;102276.13;5104045;28;20078;-68
2022/11/13 05:26:42;;;;;;;24.63;13.90;;;;;;;3.87;100.00;102276.63;5105081;28;20028;-68
2022/11/13 05:29:08;;;;;;;24.52;14.45;;;;;;;3.84;100.00;102278.28;5102433;28;20020;-68
2022/11/13 05:31:33;;;;;;;24.88;14.23;;;;;;;3.77;100.00;102264.75;5105979;28;20031;-69
2022/11/13 05:33:58;;;;;;;24.45;14.70;;;;;;;3.71;100.00;102254.84;5102651;28;20105;-68
2022/11/13 05:36:24;;;;;;;25.00;15.00;;;;;;;3.69;100.00;102259.09;5103021;28;20040;-67
2022/11/13 05:38:49;;;;;;;24.60;14.40;;;;;;;3.59;100.00;102254.19;5103712;28;20019;-68
2022/11/13 05:41:20;;;;;;;24.00;14.15;;;;;;;3.56;100.00;102248.78;5103228;28;20059;-68
2022/11/13 05:43:46;;;;;;;24.80;14.70;;;;;;;3.49;100.00;102258.91;5104051;28;20098;-68
2022/11/13 05:46:18;;;;;;;24.48;14.48;;;;;;;3.43;100.00;102261.16;5102747;28;20055;-68
2022/11/13 05:48:44;;;;;;;26.25;15.25;;;;;;;3.38;100.00;102259.09;5104638;28;20028;-68
2022/11/13 05:51:12;;;;;;;25.20;15.07;;;;;;;3.35;100.00;102259.84;5101832;28;20028;-68
2022/11/13 05:53:38;;;;;;;25.65;15.23;;;;;;;3.30;100.00;102261.28;5105199;28;20027;-68
2022/11/13 05:56:05;;;;;;;24.05;15.02;;;;;;;3.24;100.00;102266.19;5101992;28;20428;-68
2022/11/13 05:58:31;;;;;;;26.70;14.88;;;;;;;3.24;100.00;102260.94;5097416;28;20024;-68
2022/11/13 06:01:10;;;;;;;23.95;14.68;;;;;;;3.19;100.00;102263.31;5104425;28;20432;-67
2022/11/13 06:03:36;;;;;;;24.83;14.80;;;;;;;3.17;100.00;102259.69;5098184;28;20028;-68
2022/11/13 06:06:02;;;;;;;24.60;15.13;;;;;;;3.10;100.00;102260.16;5098007;28;20375;-68
2022/11/13 06:08:28;;;;;;;24.50;14.38;;;;;;;2.98;100.00;102262.97;5104533;28;20098;-68
2022/11/13 06:11:01;;;;;;;26.30;15.35;;;;;;;2.91;100.00;102266.03;5102673;28;20023;-68
2022/11/13 06:13:27;;;;;;;24.10;13.90;;;;;;;2.76;100.00;102255.59;5104537;28;20032;-68
2022/11/13 06:15:53;;;;;;;24.60;14.73;;;;;;;2.73;100.00;102248.47;5102795;28;20102;-68
2022/11/13 06:18:22;;;;;;;25.70;15.52;;;;;;;2.75;100.00;102244.25;5103162;28;20070;-69
2022/11/13 06:20:47;;;;;;;25.27;14.82;;;;;;;2.74;100.00;102237.22;5103740;28;20062;-69
2022/11/13 06:23:12;;;;;;;24.52;14.43;;;;;;;2.72;100.00;102238.84;5102314;28;20052;-68
2022/11/13 06:25:38;;;;;;;24.35;14.18;;;;;;;2.64;100.00;102236.59;5104912;28;20391;-67
2022/11/13 06:28:03;;;;;;;24.23;14.00;;;;;;;2.58;100.00;102232.81;5101684;28;20016;-67
2022/11/13 06:30:28;;;;;;;24.77;14.43;;;;;;;2.53;100.00;102235.94;5104545;28;20378;-67
2022/11/13 06:32:54;;;;;;;23.95;14.27;;;;;;;2.53;100.00;102235.94;5102289;28;20020;-67
2022/11/13 06:35:19;;;;;;;24.70;14.50;;;;;;;2.44;100.00;102233.69;5103128;28;20066;-66
2022/11/13 06:37:44;;;;;;;24.58;14.57;;;;;;;2.40;100.00;102230.00;5103567;28;20030;-67
2022/11/13 06:40:10;;;;;;;25.17;14.52;;;;;;;2.39;100.00;102223.00;5101645;28;20032;-67
2022/11/13 06:42:36;;;;;;;25.38;14.80;;;;;;;2.42;100.00;102223.16;5104424;28;20501;-67
2022/11/13 06:45:01;;;;;;;25.02;15.95;;;;;;;2.44;100.00;102216.31;5101366;28;20064;-66
2022/11/13 06:47:27;;;;;;;25.35;15.68;;;;;;;2.42;100.00;102217.06;5104338;28;20036;-67
2022/11/13 06:49:52;;;;;;;24.73;14.52;;;;;;;2.38;100.00;102220.28;5102644;28;20023;-67
2022/11/13 06:52:18;;;;;;;25.08;15.20;;;;;;;2.36;100.00;102220.19;5102705;28;20035;-67
2022/11/13 06:54:43;;;;;;;25.02;15.05;;;;;;;2.29;100.00;102227.53;5103834;28;20020;-67
2022/11/13 06:57:09;;;;;;;26.30;16.95;;;;;;;2.28;100.00;102228.38;5099638;28;20079;-67
2022/11/13 06:59:34;;;;;;;27.60;18.50;;;;;;;2.30;100.00;102227.66;5104425;28;20047;-67
2022/11/13 07:01:59;;;;;;;28.02;19.30;;;;;;;2.28;100.00;102225.78;5100297;28;20034;-67
2022/11/13 07:04:24;;;;;;;29.95;20.63;;;;;;;2.27;100.00;102222.22;5107637;28;20028;-67
2022/11/13 07:06:50;;;;;;;29.48;21.60;;;;;;;2.31;100.00;102221.63;5106770;27;20062;-67
2022/11/13 07:09:15;;;;;;;29.40;20.92;;;;;;;2.30;100.00;102227.66;5106600;28;20373;-68
2022/11/13 07:11:40;;;;;;;28.70;19.38;;;;;;;2.32;100.00;102215.59;5108028;28;20059;-68
2022/11/13 07:14:09;;;;;;;28.02;18.38;;;;;;;2.32;100.00;102215.59;5104888;28;20472;-68
2022/11/13 07:16:34;;;;;;;29.60;17.77;;;;;;;2.30;100.00;102214.63;5101468;28;20453;-68
2022/11/13 07:19:00;;;;;;;26.33;17.02;;;;;;;2.30;100.00;102222.44;5107973;28;20114;-69
2022/11/13 07:21:25;;;;;;;25.50;16.15;;;;;;;2.29;100.00;102219.72;5105755;28;20085;-68
2022/11/13 07:23:50;;;;;;;25.85;16.50;;;;;;;2.29;100.00;102215.41;5107135;28;20028;-68
2022/11/13 07:26:16;;;;;;;26.70;16.48;;;;;;;2.32;100.00;102215.59;5106998;28;21090;-68
2022/11/13 07:28:41;;;;;;;25.80;16.95;;;;;;;2.40;100.00;102209.13;5105428;28;20024;-68
2022/11/13 07:31:09;;;;;;;24.65;15.43;;;;;;;2.41;100.00;102208.31;5108175;28;20028;-68
2022/11/13 07:33:35;;;;;;;25.23;16.00;;;;;;;2.44;100.00;102204.97;5101002;28;20024;-68
2022/11/13 07:36:00;;;;;;;38.35;16.40;;;;;;;2.46;100.00;102207.69;5107866;28;20386;-68
2022/11/13 07:38:25;;;;;;;26.33;15.77;;;;;;;2.50;100.00;102200.13;5105424;28;20058;-67
2022/11/13 07:40:51;;;;;;;25.75;15.70;;;;;;;2.55;100.00;102206.53;5106135;28;20047;-69
2022/11/13 07:43:16;;;;;;;25.33;15.45;;;;;;;2.58;100.00;102209.31;5106814;28;20059;-68
2022/11/13 07:45:42;;;;;;;25.35;15.93;;;;;;;2.66;100.00;102206.25;5104820;28;20052;-68
2022/11/13 07:48:08;;;;;;;26.33;16.50;;;;;;;2.73;100.00;102209.28;5108122;28;20030;-68
2022/11/13 07:50:36;;;;;;;25.42;16.02;;;;;;;2.90;100.00;102212.00;5100743;28;20379;-68
2022/11/13 07:53:06;;;;;;;26.38;16.27;;;;;;;3.04;100.00;102208.44;5107914;28;20464;-68
2022/11/13 07:55:33;;;;;;;28.80;18.15;;;;;;;3.24;100.00;102206.06;5104128;28;20107;-68
2022/11/13 08:20:33;;;;;;;26.63;16.23;;;;;;;6.09;100.00;102193.22;5098164;28;20383;-67
2022/11/13 08:23:10;;;;;;;26.10;15.63;;;;;;;6.39;100.00;102198.91;5106471;28;20035;-65
2022/11/13 08:25:35;;;;;;;24.83;15.48;;;;;;;6.59;100.00;102193.59;5099863;28;20070;-67
2022/11/13 08:28:01;;;;;;;24.77;14.93;;;;;;;6.80;100.00;102196.19;5106868;28;20047;-67
2022/11/13 08:30:27;;;;;;;23.50;13.88;;;;;;;6.92;100.00;102194.09;5104150;28;20478;-67
2022/11/13 08:32:53;;;;;;;24.05;14.07;;;;;;;7.21;100.00;102196.09;5105599;28;20036;-67
2022/11/13 08:35:19;;;;;;;24.27;13.45;;;;;;;7.58;100.00;102187.91;5105326;28;20024;-67
2022/11/13 08:37:45;;;;;;;22.75;12.75;;;;;;;7.87;100.00;102189.84;5104343;28;20102;-67
2022/11/13 08:40:10;;;;;;;23.60;12.73;;;;;;;8.15;100.00;102184.72;5106616;28;20063;-67
2022/11/13 08:42:36;;;;;;;23.25;13.57;;;;;;;8.29;100.00;102184.31;5102986;28;20075;-67
2022/11/13 08:45:01;;;;;;;23.08;13.07;;;;;;;8.41;100.00;102181.22;5106266;28;20036;-68
2022/11/13 08:47:28;;;;;;;22.67;12.70;;;;;;;8.43;100.00;102182.16;5104456;28;20035;-67
2022/11/13 08:49:54;;;;;;;22.77;12.98;;;;;;;8.28;100.00;102182.53;5105309;28;20019;-67
2022/11/13 08:52:20;;;;;;;23.48;12.50;;;;;;;8.19;100.00;102177.81;5104984;28;20112;-67
2022/11/13 08:54:45;;;;;;;22.40;12.38;;;;;;;8.16;100.00;102180.38;5104433;28;20074;-67
2022/11/13 08:57:11;;;;;;;23.02;12.48;;;;;;;8.26;100.00;102174.56;5106084;28;20032;-67
2022/11/13 08:59:36;;;;;;;22.30;12.13;;;;;;;8.46;100.00;102177.94;5102858;28;20036;-67
2022/11/13 09:02:01;;;;;;;22.88;12.40;;;;;;;8.77;100.00;102180.72;5106046;28;20103;-67
2022/11/13 09:04:27;;;;;;;21.40;12.13;;;;;;;8.99;100.00;102172.63;5103653;28;20034;-67
2022/11/13 09:06:52;;;;;;;21.20;10.88;;;;;;;9.05;100.00;102183.38;5104717;28;20387;-67
2022/11/13 09:09:19;;;;;;;22.27;12.32;;;;;;;9.29;100.00;102171.81;5105052;28;20111;-67
2022/11/13 09:11:45;;;;;;;20.88;10.48;;;;;;;9.62;100.00;102178.94;5103459;28;20032;-67
2022/11/13 09:14:10;;;;;;;20.83;10.18;;;;;;;9.77;100.00;102168.84;5105649;28;20035;-66
2022/11/13 09:16:35;;;;;;;20.77;10.30;;;;;;;9.77;100.00;102155.63;5102668;28;20097;-67
2022/11/13 09:19:02;;;;;;;20.45;9.95;;;;;;;9.83;100.00;102160.19;5105571;28;20081;-67
2022/11/13 09:21:27;;;;;;;21.33;10.50;;;;;;;10.17;100.00;102157.59;5103537;28;20031;-67
2022/11/13 09:23:53;;;;;;;21.08;10.13;;;;;;;10.22;100.00;102158.59;5104636;28;20031;-64
2022/11/13 09:26:18;;;;;;;20.20;9.85;;;;;;;10.11;100.00;102158.31;5103885;28;20467;-64
2022/11/13 09:28:43;;;;;;;21.00;9.98;;;;;;;10.11;100.00;102158.31;5103237;28;20387;-64
2022/11/13 09:31:09;;;;;;;20.23;9.52;;;;;;;10.37;100.00;102150.19;5105495;28;20412;-65
2022/11/13 09:33:34;;;;;;;20.75;9.38;;;;;;;10.74;100.00;102159.97;5102317;28;20031;-65
2022/11/13 09:36:00;;;;;;;19.88;9.07;;;;;;;10.90;100.00;102155.94;5105156;28;20352;-64
2022/11/13 09:38:25;;;;;;;22.17;9.52;;;;;;;11.18;100.00;102161.88;5103512;28;20072;-64
2022/11/13 09:41:06;;;;;;;20.52;8.98;;;;;;;11.67;100.00;102162.94;5103630;28;20038;-65
2022/11/13 09:43:40;;;;;;;20.30;9.23;;;;;;;12.11;100.00;102155.88;5102291;28;20475;-65
2022/11/13 09:46:16;;;;;;;19.40;8.82;;;;;;;12.39;100.00;102165.22;5098086;28;20073;-65
2022/11/13 09:48:48;;;;;;;20.17;8.65;;;;;;;12.40;100.00;102156.41;5099309;28;20036;-65
2022/11/13 09:51:19;;;;;;;20.50;8.52;;;;;;;12.32;100.00;102163.31;5094592;28;20447;-63
2022/11/13 09:53:44;;;;;;;20.13;8.93;;;;;;;12.61;100.00;102157.66;5091935;28;20425;-64
2022/11/13 09:56:28;;;;;;;18.75;8.18;;;;;;;12.71;100.00;102163.16;5094953;28;20028;-64
2022/11/13 09:59:01;;;;;;;19.90;8.55;;;;;;;12.61;100.00;102160.31;5100031;28;20063;-64
2022/11/13 10:01:33;;;;;;;;;;;;;;;12.83;100.00;102164.19;5097599;28;20028;-64
2022/11/13 10:04:03;;;;;;;20.63;8.68;;;;;;;13.49;100.00;102149.25;5099377;28;19919;-65
2022/11/13 10:06:36;;;;;;;18.85;8.15;;;;;;;14.11;100.00;102149.97;5097845;28;20467;-64
2022/11/13 10:09:18;;;;;;;20.00;8.70;;;;;;;14.71;100.00;102147.91;5097185;28;20023;-64
2022/11/13 10:11:55;;;;;;;19.17;8.18;;;;;;;14.79;100.00;102155.94;5097473;28;20020;-64
2022/11/13 10:14:28;;;;;;;19.40;8.63;;;;;;;14.85;100.00;102155.09;5100702;28;20069;-65
2022/11/13 10:17:14;;;;;;;19.05;7.90;;;;;;;15.18;100.00;102154.44;5097184;28;20070;-65
2022/11/13 10:19:58;;;;;;;19.05;8.00;;;;;;;15.28;100.00;102152.72;5096241;28;20146;-67
2022/11/13 10:23:03;;;;;;;19.92;7.85;;;;;;;15.32;100.00;102147.41;5097185;28;20093;-69
2022/11/13 10:25:34;;;;;;;19.63;8.30;;;;;;;15.50;100.00;102135.94;5049284;28;20141;-68
2022/11/13 10:28:08;;;;;;;19.88;7.90;;;;;;;16.17;100.00;102144.19;5104050;28;20022;-68
2022/11/13 10:30:33;;;;;;;18.90;7.90;;;;;;;16.82;100.00;102138.84;5102296;28;20023;-68
2022/11/13 10:33:07;;;;;;;19.05;8.32;;;;;;;18.03;96.93;102134.91;5104449;28;20378;-66
2022/11/13 10:35:40;;;;;;;19.88;7.70;;;;;;;19.17;52.81;102136.63;5102472;28;20035;-66
2022/11/13 10:38:24;;;;;;;19.10;7.60;;;;;;;20.24;47.59;102135.25;5102979;28;20024;-65
2022/11/13 10:40:50;;;;;;;19.10;7.43;;;;;;;21.17;40.87;102118.44;5104426;28;20047;-68
2022/11/13 10:43:17;;;;;;;18.52;7.22;;;;;;;21.61;39.38;102125.63;5101869;28;20032;-68
2022/11/13 10:45:57;;;;;;;17.90;7.22;;;;;;;21.84;41.62;102120.59;5103714;28;20035;-68
2022/11/13 10:48:28;;;;;;;17.85;7.13;;;;;;;21.49;39.73;102108.78;5097440;28;20020;-68
2022/11/13 10:51:06;;;;;;;18.45;7.40;;;;;;;21.71;41.49;102102.97;5097233;28;20035;-67
2022/11/13 10:53:39;;;;;;;17.83;7.20;;;;;;;21.98;39.54;102100.59;5099340;28;20077;-69
2022/11/13 10:56:18;;;;;;;19.38;7.43;;;;;;;22.32;39.24;102092.56;5103358;28;20059;-68
2022/11/13 10:58:43;;;;;;;18.60;7.13;;;;;;;22.76;37.48;102084.25;5103520;28;20040;-70
2022/11/13 11:01:24;;;;;;;18.15;6.95;;;;;;;23.16;38.46;102077.78;5102744;28;20032;-69
2022/11/13 11:03:50;;;;;;;18.20;7.18;;;;;;;23.15;36.24;102081.41;5104592;28;20020;-68
2022/11/13 11:06:15;;;;;;;18.45;6.80;;;;;;;23.67;35.04;102085.22;5101571;28;20402;-70
2022/11/13 11:08:40;;;;;;;17.38;6.93;;;;;;;24.11;34.40;102073.09;5103316;28;20036;-70
2022/11/13 11:14:26;;;;;;;18.92;7.10;;;;;;;25.54;35.20;102073.38;5098264;28;20672;-70
2022/11/13 11:16:52;;;;;;;18.00;7.30;;;;;;;25.85;32.50;102074.00;5094935;28;20039;-70
2022/11/13 11:19:24;;;;;;;17.50;7.05;;;;;;;25.82;30.87;102079.50;5103970;28;20462;-70
2022/11/13 11:21:56;;;;;;;17.55;7.28;;;;;;;25.48;31.61;102070.03;5101228;28;20036;-70
2022/11/13 11:24:31;;;;;;;19.15;7.88;;;;;;;25.50;32.57;102074.44;5096983;28;20031;-69
2022/11/13 11:27:16;;;;;;;17.92;7.28;;;;;;;26.30;32.43;102081.19;5097436;28;20020;-68
2022/11/13 11:29:50;;;;;;;18.95;7.60;;;;;;;25.82;31.76;102066.88;5102268;28;20036;-69
2022/11/13 11:32:41;;;;;;;18.65;7.57;;;;;;;26.51;33.36;102063.09;5103701;28;20028;-70
2022/11/13 11:35:17;;;;;;;18.90;7.47;;;;;;;26.65;31.06;102062.50;5100051;28;20020;-70
2022/11/13 11:38:11;;;;;;;18.27;7.38;;;;;;;27.06;31.12;102053.47;5101660;28;20031;-70